Time,TemperatureF,DewpointF,PressureIn,WindDirection,WindDirectionDegrees,WindSpeedMPH,WindSpeedGustMPH,Humidity,HourlyPrecipIn,Conditions,Clouds,dailyrainin,SolarRadiationWatts/m^2,SoftwareType,DateUTC
2013-01-24 00:03:00,-999.0,-99.9,-100.00,South,178,0.0,-999.0,84,-99.99,,,0.00,0.000000,,2013-01-24 05:03:00,
2013-01-24 00:12:00,33.0,28.0,-100.00,South,180,0.0,-999.0,80,-99.99,,,0.00,0.000000,,2013-01-24 05:12:00,
2013-01-24 00:23:00,35.0,29.0,-100.00,ESE,105,0.0,-999.0,78,-99.99,,,0.00,0.000000,,2013-01-24 05:23:00,
2013-01-24 00:33:00,35.0,29.0,-100.00,ESE,105,0.0,-999.0,78,-99.99,,,0.00,0.000000,,2013-01-24 05:33:00,
2013-01-24 00:43:00,36.0,29.0,-100.00,SSW,199,1.0,-999.0,75,-99.99,,,0.00,0.000000,,2013-01-24 05:43:00,
2013-01-24 00:53:00,36.0,29.0,-100.00,SSW,199,1.0,-999.0,75,-99.99,,,0.00,0.000000,,2013-01-24 05:53:00,
2013-01-24 01:03:00,36.0,29.0,-100.00,SSW,199,1.0,-999.0,75,-99.99,,,0.00,0.000000,,2013-01-24 06:03:00,
2013-01-24 01:12:00,36.0,28.0,-100.00,SSW,211,2.0,-999.0,73,-99.99,,,0.00,0.000000,,2013-01-24 06:12:00,
2013-01-24 01:22:00,35.0,29.0,-100.00,SSW,213,2.0,-999.0,76,-99.99,,,0.00,0.000000,,2013-01-24 06:22:00,
2013-01-24 01:32:00,35.0,29.0,-100.00,SSW,213,2.0,-999.0,76,-99.99,,,0.00,0.000000,,2013-01-24 06:32:00,
2013-01-24 01:42:00,37.0,30.0,-100.00,SW,226,1.0,-999.0,77,-99.99,,,0.00,0.000000,,2013-01-24 06:42:00,
2013-01-24 01:53:00,37.0,30.0,-100.00,SW,226,1.0,-999.0,77,-99.99,,,0.00,0.000000,,2013-01-24 06:53:00,
2013-01-24 02:03:00,37.0,30.0,-100.00,SW,226,1.0,-999.0,77,-99.99,,,0.00,0.000000,,2013-01-24 07:03:00,
2013-01-24 02:12:00,40.0,32.0,-100.00,SW,231,2.0,-999.0,74,-99.99,,,0.00,0.000000,,2013-01-24 07:12:00,
2013-01-24 02:23:00,41.0,33.0,-100.00,SW,234,2.0,-999.0,73,-99.99,,,0.00,0.000000,,2013-01-24 07:23:00,
2013-01-24 02:33:00,41.0,33.0,-100.00,SW,234,2.0,-999.0,73,-99.99,,,0.00,0.000000,,2013-01-24 07:33:00,
2013-01-24 02:43:00,42.0,34.0,-100.00,SW,217,2.0,-999.0,72,-99.99,,,0.00,0.000000,,2013-01-24 07:43:00,
2013-01-24 02:53:00,42.0,34.0,-100.00,SW,217,2.0,-999.0,72,-99.99,,,0.00,0.000000,,2013-01-24 07:53:00,
2013-01-24 03:02:00,42.0,34.0,-100.00,SW,217,2.0,-999.0,72,-99.99,,,0.00,0.000000,,2013-01-24 08:02:00,
2013-01-24 03:12:00,43.0,33.0,-100.00,NW,305,3.0,-999.0,68,-99.99,,,0.00,0.000000,,2013-01-24 08:12:00,
2013-01-24 03:23:00,42.0,32.0,-100.00,NW,317,1.0,-999.0,67,-99.99,,,0.00,0.000000,,2013-01-24 08:23:00,
2013-01-24 03:33:00,42.0,32.0,-100.00,NW,317,1.0,-999.0,67,-99.99,,,0.00,0.000000,,2013-01-24 08:33:00,
2013-01-24 03:43:00,42.0,32.0,-100.00,NW,306,3.0,-999.0,65,-99.99,,,0.00,0.000000,,2013-01-24 08:43:00,
2013-01-24 03:53:00,42.0,32.0,-100.00,NW,306,3.0,-999.0,65,-99.99,,,0.00,0.000000,,2013-01-24 08:53:00,
2013-01-24 04:03:00,42.0,32.0,-100.00,NW,306,3.0,-999.0,65,-99.99,,,0.00,0.000000,,2013-01-24 09:03:00,
2013-01-24 04:13:00,41.0,30.0,-100.00,NNW,327,2.0,-999.0,62,-99.99,,,0.00,0.000000,,2013-01-24 09:13:00,
2013-01-24 04:23:00,41.0,28.0,-100.00,WNW,291,3.0,-999.0,60,-99.99,,,0.00,0.000000,,2013-01-24 09:23:00,
2013-01-24 04:33:00,41.0,28.0,-100.00,WNW,291,3.0,-999.0,60,-99.99,,,0.00,0.000000,,2013-01-24 09:33:00,
2013-01-24 04:43:00,40.0,27.0,-100.00,West,270,5.0,-999.0,58,-99.99,,,0.00,0.000000,,2013-01-24 09:43:00,
2013-01-24 04:53:00,40.0,27.0,-100.00,West,270,5.0,-999.0,58,-99.99,,,0.00,0.000000,,2013-01-24 09:53:00,
2013-01-24 05:03:00,40.0,27.0,-100.00,West,270,5.0,-999.0,58,-99.99,,,0.00,0.000000,,2013-01-24 10:03:00,
2013-01-24 05:12:00,39.0,27.0,-100.00,West,262,3.0,-999.0,61,-99.99,,,0.00,0.000000,,2013-01-24 10:12:00,
2013-01-24 05:23:00,38.0,27.0,-100.00,West,273,3.0,-999.0,63,-99.99,,,0.00,0.000000,,2013-01-24 10:23:00,
2013-01-24 05:33:00,38.0,27.0,-100.00,West,273,3.0,-999.0,63,-99.99,,,0.00,0.000000,,2013-01-24 10:33:00,
2013-01-24 05:43:00,38.0,27.0,-100.00,WNW,291,2.0,-999.0,63,-99.99,,,0.00,0.000000,,2013-01-24 10:43:00,
2013-01-24 05:53:00,38.0,27.0,-100.00,WNW,291,2.0,-999.0,63,-99.99,,,0.00,0.000000,,2013-01-24 10:53:00,
2013-01-24 06:03:00,38.0,27.0,-100.00,WNW,291,2.0,-999.0,63,-99.99,,,0.00,0.000000,,2013-01-24 11:03:00,
2013-01-24 06:12:00,37.0,24.0,-100.00,WNW,294,3.0,-999.0,60,-99.99,,,0.00,0.000000,,2013-01-24 11:12:00,
2013-01-24 06:23:00,36.0,24.0,-100.00,WNW,283,3.0,-999.0,59,-99.99,,,0.00,0.000000,,2013-01-24 11:23:00,
2013-01-24 06:33:00,36.0,24.0,-100.00,WNW,283,3.0,-999.0,59,-99.99,,,0.00,0.000000,,2013-01-24 11:33:00,
2013-01-24 06:43:00,36.0,23.0,-100.00,WNW,286,4.0,-999.0,57,-99.99,,,0.00,0.000000,,2013-01-24 11:43:00,
2013-01-24 06:53:00,36.0,23.0,-100.00,WNW,286,4.0,-999.0,57,-99.99,,,0.00,0.000000,,2013-01-24 11:53:00,
2013-01-24 07:03:00,36.0,23.0,-100.00,WNW,286,4.0,-999.0,57,-99.99,,,0.00,0.000000,,2013-01-24 12:03:00,
2013-01-24 07:12:00,35.0,19.0,-100.00,WNW,293,4.0,-999.0,53,-99.99,,,0.00,0.000000,,2013-01-24 12:12:00,
2013-01-24 07:23:00,34.0,20.0,-100.00,NW,308,2.0,-999.0,54,-99.99,,,0.00,0.000000,,2013-01-24 12:23:00,
2013-01-24 07:33:00,34.0,20.0,-100.00,NW,308,2.0,-999.0,54,-99.99,,,0.00,0.000000,,2013-01-24 12:33:00,
2013-01-24 07:43:00,34.0,20.0,-100.00,NNW,335,1.0,-999.0,57,-99.99,,,0.00,0.000000,,2013-01-24 12:43:00,
2013-01-24 07:53:00,34.0,20.0,-100.00,NNW,335,1.0,-999.0,57,-99.99,,,0.00,0.000000,,2013-01-24 12:53:00,
2013-01-24 08:00:00,31.0,20.0,-100.00,North,4,1.0,-999.0,63,-99.99,,,0.00,0.000000,,2013-01-24 13:00:00,
2013-01-24 08:03:00,34.0,20.0,-100.00,NNW,335,1.0,-999.0,57,-99.99,,,0.00,0.000000,,2013-01-24 13:03:00,
2013-01-24 08:13:00,32.0,21.0,-100.00,North,350,1.0,-999.0,62,-99.99,,,0.00,0.000000,,2013-01-24 13:13:00,
2013-01-24 08:23:00,31.0,20.0,-100.00,North,4,1.0,-999.0,63,-99.99,,,0.00,0.000000,,2013-01-24 13:23:00,
2013-01-24 08:33:00,31.0,20.0,-100.00,North,4,1.0,-999.0,63,-99.99,,,0.00,0.000000,,2013-01-24 13:33:00,
2013-01-24 08:43:00,31.0,20.0,-100.00,North,4,1.0,-999.0,63,-99.99,,,0.00,0.000000,,2013-01-24 13:43:00,
2013-01-24 08:53:00,31.0,20.0,-100.00,North,4,1.0,-999.0,63,-99.99,,,0.00,0.000000,,2013-01-24 13:53:00,
2013-01-24 09:13:00,32.0,15.0,-100.00,North,9,1.0,-999.0,48,-99.99,,,-99.99,0.200000,,2013-01-24 14:13:00,
2013-01-24 09:23:00,33.0,14.0,-100.00,NNE,17,1.0,-999.0,44,-99.99,,,0.00,0.200000,,2013-01-24 14:23:00,
2013-01-24 09:33:00,33.0,14.0,-100.00,NNE,17,1.0,-999.0,44,-99.99,,,0.00,0.200000,,2013-01-24 14:33:00,
2013-01-24 09:43:00,33.0,13.0,-100.00,NNE,27,1.0,-999.0,42,-99.99,,,0.00,0.300000,,2013-01-24 14:43:00,
2013-01-24 09:54:00,33.0,13.0,-100.00,NNE,27,1.0,-999.0,42,-99.99,,,0.00,0.300000,,2013-01-24 14:54:00,
2013-01-24 10:00:00,34.0,12.0,-100.00,NE,46,1.0,-999.0,39,-99.99,,,0.00,0.500000,,2013-01-24 15:00:00,
2013-01-24 10:04:00,33.0,13.0,-100.00,NNE,27,1.0,-999.0,42,-99.99,,,0.00,0.300000,,2013-01-24 15:04:00,
2013-01-24 10:13:00,34.0,13.0,-100.00,NE,40,2.0,-999.0,41,-99.99,,,0.00,0.400000,,2013-01-24 15:13:00,
2013-01-24 10:23:00,34.0,12.0,-100.00,NE,46,1.0,-999.0,39,-99.99,,,0.00,0.500000,,2013-01-24 15:23:00,
2013-01-24 10:33:00,34.0,12.0,-100.00,NE,46,1.0,-999.0,39,-99.99,,,0.00,0.500000,,2013-01-24 15:33:00,
2013-01-24 10:43:00,34.0,12.0,-100.00,NE,46,1.0,-999.0,39,-99.99,,,0.00,0.500000,,2013-01-24 15:43:00,
2013-01-24 10:53:00,34.0,12.0,-100.00,NE,46,1.0,-999.0,39,-99.99,,,0.00,0.500000,,2013-01-24 15:53:00,
2013-01-24 11:12:00,33.0,9.0,-100.00,ENE,72,3.0,-999.0,35,-99.99,,,0.00,0.600000,,2013-01-24 16:12:00,
2013-01-24 11:23:00,33.0,8.0,-100.00,NE,54,2.0,-999.0,33,-99.99,,,0.00,0.700000,,2013-01-24 16:23:00,
2013-01-24 11:33:00,33.0,8.0,-100.00,NE,54,2.0,-999.0,33,-99.99,,,0.00,0.700000,,2013-01-24 16:33:00,
2013-01-24 11:43:00,34.0,8.0,-100.00,NNE,26,1.0,-999.0,33,-99.99,,,0.00,0.700000,,2013-01-24 16:43:00,
2013-01-24 12:03:00,34.0,8.0,-100.00,NNE,26,1.0,-999.0,33,-99.99,,,0.00,0.700000,,2013-01-24 17:03:00,
2013-01-24 12:12:00,33.0,7.0,-100.00,ENE,69,3.0,-999.0,32,-99.99,,,0.00,0.700000,,2013-01-24 17:12:00,
2013-01-24 12:22:00,33.0,7.0,-100.00,ENE,69,3.0,-999.0,32,-99.99,,,0.00,0.700000,,2013-01-24 17:22:00,
2013-01-24 12:32:00,32.0,5.0,-100.00,East,83,4.0,-999.0,31,-99.99,,,0.00,0.700000,,2013-01-24 17:32:00,
2013-01-24 12:42:00,33.0,6.0,-100.00,ENE,58,2.0,-999.0,30,-99.99,,,0.00,0.800000,,2013-01-24 17:42:00,
2013-01-24 12:52:00,33.0,6.0,-100.00,ENE,58,2.0,-999.0,30,-99.99,,,0.00,0.800000,,2013-01-24 17:52:00,
2013-01-24 13:03:00,33.0,6.0,-100.00,ENE,58,2.0,-999.0,30,-99.99,,,0.00,0.800000,,2013-01-24 18:03:00,
2013-01-24 13:12:00,34.0,3.0,-100.00,ENE,75,3.0,-999.0,27,-99.99,,,0.00,0.800000,,2013-01-24 18:12:00,
2013-01-24 13:23:00,34.0,2.0,-100.00,East,87,3.0,-999.0,26,-99.99,,,0.00,0.900000,,2013-01-24 18:23:00,
2013-01-24 13:33:00,34.0,2.0,-100.00,East,87,3.0,-999.0,26,-99.99,,,0.00,0.900000,,2013-01-24 18:33:00,
2013-01-24 13:42:00,34.0,2.0,-100.00,East,94,3.0,-999.0,25,-99.99,,,0.00,0.800000,,2013-01-24 18:42:00,
2013-01-24 13:53:00,34.0,2.0,-100.00,East,94,3.0,-999.0,25,-99.99,,,0.00,0.800000,,2013-01-24 18:53:00,
2013-01-24 14:02:00,34.0,2.0,-100.00,East,94,3.0,-999.0,25,-99.99,,,0.00,0.800000,,2013-01-24 19:02:00,
2013-01-24 14:12:00,35.0,1.0,-100.00,ENE,78,3.0,-999.0,22,-99.99,,,0.00,0.800000,,2013-01-24 19:12:00,
2013-01-24 14:22:00,35.0,1.0,-100.00,East,87,3.0,-999.0,22,-99.99,,,0.00,0.700000,,2013-01-24 19:22:00,
2013-01-24 14:33:00,35.0,1.0,-100.00,East,87,3.0,-999.0,22,-99.99,,,0.00,0.700000,,2013-01-24 19:33:00,
2013-01-24 14:42:00,35.0,0.0,-100.00,ENE,77,3.0,-999.0,22,-99.99,,,0.00,0.800000,,2013-01-24 19:42:00,
2013-01-24 14:53:00,36.0,0.0,-100.00,ENE,59,2.0,-999.0,21,-99.99,,,0.00,0.800000,,2013-01-24 19:53:00,
2013-01-24 15:02:00,36.0,0.0,-100.00,ENE,59,2.0,-999.0,21,-99.99,,,0.00,0.800000,,2013-01-24 20:02:00,
2013-01-24 15:12:00,36.0,-1.0,-100.00,ENE,76,2.0,-999.0,20,-99.99,,,0.00,0.700000,,2013-01-24 20:12:00,
2013-01-24 15:22:00,35.0,0.0,-100.00,ENE,70,3.0,-999.0,21,-99.99,,,0.00,0.600000,,2013-01-24 20:22:00,
2013-01-24 15:33:00,35.0,0.0,-100.00,East,84,3.0,-999.0,21,-99.99,,,-99.99,0.600000,,2013-01-24 20:33:00,
2013-01-24 15:42:00,35.0,0.0,-100.00,East,84,3.0,-999.0,21,-99.99,,,-99.99,0.600000,,2013-01-24 20:42:00,
2013-01-24 15:52:00,35.0,0.0,-100.00,East,85,3.0,-999.0,22,-99.99,,,0.00,0.500000,,2013-01-24 20:52:00,
2013-01-24 16:03:00,35.0,0.0,-100.00,ENE,75,3.0,-999.0,21,-99.99,,,0.00,0.500000,,2013-01-24 21:03:00,
2013-01-24 16:12:00,35.0,0.0,-100.00,ENE,75,3.0,-999.0,21,-99.99,,,0.00,0.500000,,2013-01-24 21:12:00,
2013-01-24 16:23:00,36.0,-1.0,-100.00,ENE,73,1.0,-999.0,20,-99.99,,,0.00,0.500000,,2013-01-24 21:23:00,
2013-01-24 16:33:00,36.0,-1.0,-100.00,ENE,73,1.0,-999.0,20,-99.99,,,0.00,0.500000,,2013-01-24 21:33:00,
2013-01-24 16:43:00,36.0,-3.0,-100.00,ENE,71,2.0,-999.0,18,-99.99,,,0.00,0.400000,,2013-01-24 21:43:00,
2013-01-24 16:53:00,36.0,-2.0,-100.00,ENE,63,2.0,-999.0,19,-99.99,,,-99.99,0.300000,,2013-01-24 21:53:00,
2013-01-24 17:03:00,36.0,-2.0,-100.00,ENE,63,2.0,-999.0,19,-99.99,,,-99.99,0.300000,,2013-01-24 22:03:00,
2013-01-24 17:12:00,35.0,-1.0,-100.00,ENE,72,2.0,-999.0,20,-99.99,,,0.00,0.300000,,2013-01-24 22:12:00,
2013-01-24 17:22:00,34.0,-1.0,-100.00,ENE,59,2.0,-999.0,22,-99.99,,,0.00,0.200000,,2013-01-24 22:22:00,
2013-01-24 17:33:00,34.0,-1.0,-100.00,ENE,59,2.0,-999.0,22,-99.99,,,0.00,0.200000,,2013-01-24 22:33:00,
2013-01-24 17:42:00,34.0,-1.0,-100.00,NE,53,1.0,-999.0,21,-99.99,,,0.00,0.200000,,2013-01-24 22:42:00,
2013-01-24 17:53:00,34.0,-1.0,-100.00,NE,53,1.0,-999.0,21,-99.99,,,0.00,0.200000,,2013-01-24 22:53:00,
2013-01-24 18:03:00,34.0,-1.0,-100.00,NE,53,1.0,-999.0,21,-99.99,,,0.00,0.200000,,2013-01-24 23:03:00,
2013-01-24 18:12:00,33.0,0.0,-100.00,ENE,62,2.0,-999.0,23,-99.99,,,0.00,0.000000,,2013-01-24 23:12:00,
2013-01-24 18:22:00,32.0,1.0,-100.00,NE,54,1.0,-999.0,25,-99.99,,,0.00,0.000000,,2013-01-24 23:22:00,
2013-01-24 18:32:00,32.0,1.0,-100.00,NE,54,1.0,-999.0,25,-99.99,,,0.00,0.000000,,2013-01-24 23:32:00,
2013-01-24 18:42:00,31.0,1.0,-100.00,ENE,60,1.0,-999.0,27,-99.99,,,0.00,0.000000,,2013-01-24 23:42:00,
2013-01-24 18:52:00,31.0,2.0,-100.00,ENE,59,1.0,-999.0,28,-99.99,,,-99.99,0.000000,,2013-01-24 23:52:00,
2013-01-24 19:02:00,31.0,2.0,-100.00,ENE,59,1.0,-999.0,28,-99.99,,,-99.99,0.000000,,2013-01-25 00:02:00,
2013-01-24 19:12:00,30.0,2.0,-100.00,NE,41,1.0,-999.0,28,-99.99,,,0.00,0.000000,,2013-01-25 00:12:00,
2013-01-24 19:22:00,30.0,2.0,-100.00,NNE,25,1.0,-999.0,28,-99.99,,,0.00,0.000000,,2013-01-25 00:22:00,
2013-01-24 19:32:00,30.0,2.0,-100.00,NNE,25,1.0,-999.0,28,-99.99,,,0.00,0.000000,,2013-01-25 00:32:00,
2013-01-24 19:42:00,30.0,2.0,-100.00,NNE,20,1.0,-999.0,28,-99.99,,,0.00,0.000000,,2013-01-25 00:42:00,
2013-01-24 19:53:00,30.0,1.0,-100.00,NE,46,1.0,-999.0,28,-99.99,,,-99.99,0.000000,,2013-01-25 00:53:00,
2013-01-24 20:02:00,30.0,1.0,-100.00,NE,46,1.0,-999.0,28,-99.99,,,-99.99,0.000000,,2013-01-25 01:02:00,
2013-01-24 20:12:00,30.0,1.0,-100.00,NE,53,0.0,-999.0,29,-99.99,,,0.00,0.000000,,2013-01-25 01:12:00,
2013-01-24 20:22:00,29.0,1.0,-100.00,ENE,69,0.0,-999.0,29,-99.99,,,0.00,0.000000,,2013-01-25 01:22:00,
2013-01-24 20:32:00,29.0,1.0,-100.00,ENE,69,0.0,-999.0,29,-99.99,,,0.00,0.000000,,2013-01-25 01:32:00,
2013-01-24 20:42:00,29.0,1.0,-100.00,NE,54,0.0,-999.0,29,-99.99,,,0.00,0.000000,,2013-01-25 01:42:00,
2013-01-24 20:52:00,29.0,1.0,-100.00,NE,54,0.0,-999.0,29,-99.99,,,0.00,0.000000,,2013-01-25 01:52:00,
2013-01-24 21:02:00,29.0,1.0,-100.00,NE,56,0.0,-999.0,30,-99.99,,,0.00,0.000000,,2013-01-25 02:02:00,
2013-01-24 21:12:00,29.0,1.0,-100.00,NE,56,0.0,-999.0,30,-99.99,,,0.00,0.000000,,2013-01-25 02:12:00,
2013-01-24 21:22:00,29.0,1.0,-100.00,NE,50,1.0,-999.0,30,-99.99,,,0.00,0.000000,,2013-01-25 02:22:00,
2013-01-24 21:33:00,29.0,1.0,-100.00,NE,50,1.0,-999.0,30,-99.99,,,0.00,0.000000,,2013-01-25 02:33:00,
2013-01-24 21:42:00,29.0,2.0,-100.00,ENE,68,1.0,-999.0,30,-99.99,,,0.00,0.000000,,2013-01-25 02:42:00,
2013-01-24 21:53:00,29.0,2.0,-100.00,ENE,68,1.0,-999.0,30,-99.99,,,0.00,0.000000,,2013-01-25 02:53:00,
2013-01-24 22:02:00,29.0,2.0,-100.00,ENE,68,1.0,-999.0,30,-99.99,,,0.00,0.000000,,2013-01-25 03:02:00,
2013-01-24 22:12:00,28.0,2.0,-100.00,ENE,76,1.0,-999.0,31,-99.99,,,0.00,0.000000,,2013-01-25 03:12:00,
2013-01-24 22:22:00,28.0,2.0,-100.00,East,79,1.0,-999.0,31,-99.99,,,0.00,0.000000,,2013-01-25 03:22:00,
2013-01-24 22:33:00,28.0,2.0,-100.00,East,79,1.0,-999.0,31,-99.99,,,0.00,0.000000,,2013-01-25 03:33:00,
2013-01-24 22:42:00,28.0,1.0,-100.00,East,86,1.0,-999.0,31,-99.99,,,0.00,0.000000,,2013-01-25 03:42:00,
2013-01-24 22:53:00,28.0,1.0,-100.00,East,86,1.0,-999.0,31,-99.99,,,0.00,0.000000,,2013-01-25 03:53:00,
2013-01-24 23:02:00,28.0,1.0,-100.00,East,86,1.0,-999.0,31,-99.99,,,0.00,0.000000,,2013-01-25 04:02:00,
2013-01-24 23:12:00,28.0,1.0,-100.00,East,81,1.0,-999.0,31,-99.99,,,0.00,0.000000,,2013-01-25 04:12:00,
2013-01-24 23:22:00,28.0,2.0,-100.00,ENE,74,1.0,-999.0,31,-99.99,,,0.00,0.000000,,2013-01-25 04:22:00,
2013-01-24 23:32:00,28.0,2.0,-100.00,ENE,74,1.0,-999.0,31,-99.99,,,0.00,0.000000,,2013-01-25 04:32:00,
2013-01-24 23:42:00,28.0,2.0,-100.00,East,83,1.0,-999.0,31,-99.99,,,0.00,0.000000,,2013-01-25 04:42:00,
2013-01-24 23:52:00,28.0,2.0,-100.00,East,83,1.0,-999.0,31,-99.99,,,0.00,0.000000,,2013-01-25 04:52:00,